createdAt,value
2022-11-30T00:02:26.303Z,11.80
2022-11-30T00:05:49.416Z,15.55
2022-11-30T00:09:14.977Z,16.85
2022-11-30T00:12:37.880Z,10.30
2022-11-30T00:16:01.748Z,9.32
2022-11-30T00:19:24.642Z,10.65
2022-11-30T00:22:47.535Z,11.40
2022-11-30T00:26:13.793Z,14.68
2022-11-30T00:29:36.722Z,10.82
2022-11-30T00:32:59.630Z,10.40
2022-11-30T00:36:23.612Z,12.43
2022-11-30T00:39:46.493Z,8.98
2022-11-30T00:43:10.776Z,11.73
2022-11-30T00:46:33.964Z,10.80
2022-11-30T00:49:56.963Z,9.93
2022-11-30T00:53:20.703Z,10.25
2022-11-30T00:56:43.659Z,11.90
2022-11-30T01:00:09.768Z,12.65
2022-11-30T01:03:32.859Z,8.88
2022-11-30T01:06:55.757Z,11.85
2022-11-30T01:10:18.968Z,9.77
2022-11-30T01:13:41.903Z,11.27
2022-11-30T01:17:06.212Z,7.68
2022-11-30T01:20:29.134Z,9.77
2022-11-30T01:23:52.468Z,13.27
2022-11-30T01:27:15.438Z,13.82
2022-11-30T01:30:38.405Z,11.15
2022-11-30T01:34:02.756Z,10.80
2022-11-30T01:37:25.648Z,9.00
2022-11-30T01:40:51.747Z,7.72
2022-11-30T01:44:57.397Z,8.82
2022-11-30T01:48:21.119Z,8.25
2022-11-30T01:51:48.064Z,9.30
2022-11-30T01:55:19.691Z,7.95
2022-11-30T01:58:42.739Z,16.55
2022-11-30T02:02:05.668Z,14.13
2022-11-30T02:05:28.991Z,7.88
2022-11-30T02:08:53.710Z,11.18
2022-11-30T02:12:23.670Z,9.80
2022-11-30T02:15:58.226Z,10.20
2022-11-30T02:19:51.328Z,8.07
2022-11-30T02:23:41.517Z,8.35
2022-11-30T02:27:19.524Z,19.70
2022-11-30T02:30:47.687Z,9.95
2022-11-30T02:34:14.919Z,12.57
2022-11-30T02:37:39.448Z,10.30
2022-11-30T02:41:02.376Z,13.00
2022-11-30T02:44:26.076Z,9.10
2022-11-30T02:47:56.700Z,10.85
2022-11-30T02:51:22.841Z,10.38
2022-11-30T02:54:46.092Z,13.23
2022-11-30T02:58:09.269Z,9.88
2022-11-30T03:01:32.543Z,8.27
2022-11-30T03:04:56.877Z,11.90
2022-11-30T03:08:19.759Z,11.40
2022-11-30T03:11:42.729Z,12.15
2022-11-30T03:15:06.581Z,10.73
2022-11-30T03:18:29.508Z,7.88
2022-11-30T03:21:53.796Z,9.55
2022-11-30T03:25:16.878Z,5.85
2022-11-30T03:28:39.771Z,9.50
2022-11-30T03:32:02.675Z,6.13
2022-11-30T03:35:25.566Z,6.40
2022-11-30T03:38:49.913Z,10.43
2022-11-30T03:42:12.857Z,7.03
2022-11-30T03:45:35.766Z,5.68
2022-11-30T03:48:58.647Z,8.10
2022-11-30T03:52:21.668Z,9.98
2022-11-30T03:55:45.952Z,9.27
2022-11-30T03:59:08.879Z,6.75
2022-11-30T04:02:32.106Z,8.93
2022-11-30T04:05:55.377Z,5.68
2022-11-30T04:09:18.311Z,6.35
2022-11-30T04:12:42.535Z,9.73
2022-11-30T04:16:06.823Z,7.03
2022-11-30T04:19:29.770Z,7.68
2022-11-30T04:22:53.744Z,7.80
2022-11-30T04:26:17.904Z,7.68
2022-11-30T04:29:42.160Z,7.20
2022-11-30T04:33:06.107Z,7.03
2022-11-30T04:36:29.006Z,6.28
2022-11-30T04:39:51.879Z,8.30
2022-11-30T04:43:14.940Z,12.25
2022-11-30T04:46:39.250Z,7.95
2022-11-30T04:50:02.519Z,7.45
2022-11-30T04:53:25.402Z,6.88
2022-11-30T04:56:48.311Z,8.13
2022-11-30T05:00:12.560Z,8.48
2022-11-30T05:03:36.925Z,6.35
2022-11-30T05:06:59.810Z,9.80
2022-11-30T05:10:22.876Z,8.05
2022-11-30T05:13:45.788Z,10.57
2022-11-30T05:17:08.699Z,6.38
2022-11-30T05:20:32.931Z,5.97
2022-11-30T05:23:55.819Z,10.00
2022-11-30T05:27:22.588Z,4.70
2022-11-30T05:30:45.868Z,9.55
2022-11-30T05:34:08.818Z,5.20
2022-11-30T05:37:33.136Z,4.95
2022-11-30T05:41:00.952Z,5.78
2022-11-30T05:44:23.861Z,7.45
2022-11-30T05:47:46.775Z,5.78
2022-11-30T05:51:11.268Z,8.88
2022-11-30T05:54:36.095Z,11.55
2022-11-30T05:57:59.049Z,15.98
2022-11-30T06:01:23.452Z,10.10
2022-11-30T06:04:46.621Z,14.65
2022-11-30T06:08:09.741Z,10.35
2022-11-30T06:11:34.079Z,8.75
2022-11-30T06:14:56.976Z,14.40
2022-11-30T06:18:20.030Z,11.70
2022-11-30T06:21:43.050Z,13.93
2022-11-30T06:25:06.707Z,13.73
2022-11-30T06:28:31.112Z,10.80
2022-11-30T06:31:54.030Z,16.88
2022-11-30T06:35:17.260Z,13.75
2022-11-30T06:38:40.209Z,13.05
2022-11-30T06:42:03.130Z,10.60
2022-11-30T06:45:27.412Z,18.13
2022-11-30T06:48:50.880Z,18.00
2022-11-30T06:52:14.088Z,10.07
2022-11-30T06:55:38.267Z,8.88
2022-11-30T06:59:01.210Z,9.90
2022-11-30T07:02:26.326Z,13.48
2022-11-30T07:05:49.231Z,10.98
2022-11-30T07:09:13.176Z,11.05
2022-11-30T07:12:36.439Z,14.55
2022-11-30T07:15:59.479Z,11.20
2022-11-30T07:19:23.739Z,17.33
2022-11-30T07:22:46.639Z,13.30
2022-11-30T07:26:09.435Z,18.92
2022-11-30T07:29:32.438Z,20.42
2022-11-30T07:32:55.484Z,25.10
2022-11-30T07:36:21.714Z,24.63
2022-11-30T07:39:44.637Z,24.08
2022-11-30T07:43:07.789Z,21.58
2022-11-30T07:46:33.649Z,17.48
2022-11-30T07:49:57.146Z,16.52
2022-11-30T07:53:21.565Z,16.17
2022-11-30T07:56:44.669Z,15.02
2022-11-30T08:00:10.073Z,18.70
2022-11-30T08:03:37.216Z,12.48
2022-11-30T08:07:00.527Z,12.48
2022-11-30T08:10:25.407Z,13.13
2022-11-30T08:13:48.371Z,13.60
2022-11-30T08:17:11.294Z,8.60
2022-11-30T08:20:34.566Z,11.73
2022-11-30T08:23:58.177Z,9.65
2022-11-30T08:27:22.469Z,9.52
2022-11-30T08:30:45.433Z,9.15
2022-11-30T08:34:11.586Z,16.88
2022-11-30T08:37:37.699Z,15.15
2022-11-30T08:41:00.592Z,8.65
2022-11-30T08:44:24.999Z,13.43
2022-11-30T08:47:47.921Z,9.90
2022-11-30T08:51:12.716Z,8.15
2022-11-30T08:54:35.646Z,8.45
2022-11-30T08:57:59.066Z,7.57
2022-11-30T09:01:27.168Z,12.18
2022-11-30T09:04:53.512Z,8.57
2022-11-30T09:08:16.514Z,9.77
2022-11-30T09:11:39.552Z,10.35
2022-11-30T09:15:02.726Z,10.90
2022-11-30T09:18:27.427Z,10.65
2022-11-30T09:21:52.300Z,12.55
2022-11-30T09:25:15.598Z,7.05
2022-11-30T09:28:39.965Z,9.25
2022-11-30T09:32:02.980Z,9.52
2022-11-30T09:35:27.683Z,13.32
2022-11-30T09:38:53.489Z,9.15
2022-11-30T09:42:34.817Z,9.73
2022-11-30T09:46:00.571Z,12.90
2022-11-30T09:49:26.416Z,7.90
2022-11-30T09:52:53.218Z,8.18
2022-11-30T09:56:22.542Z,12.60
2022-11-30T09:59:52.654Z,16.83
2022-11-30T10:03:15.845Z,13.85
2022-11-30T10:06:44.238Z,8.43
2022-11-30T10:10:34.041Z,14.88
2022-11-30T10:14:06.962Z,10.15
2022-11-30T10:17:40.585Z,13.40
2022-11-30T10:21:12.051Z,19.58
2022-11-30T10:24:51.226Z,10.50
2022-11-30T10:28:45.390Z,6.65
2022-11-30T10:32:11.297Z,14.50
2022-11-30T10:35:38.580Z,11.75
2022-11-30T10:39:05.720Z,13.05
2022-11-30T10:42:33.559Z,10.85
2022-11-30T10:45:57.944Z,13.75
2022-11-30T10:49:23.452Z,15.00
2022-11-30T10:52:49.188Z,9.38
2022-11-30T10:56:14.168Z,6.95
2022-11-30T10:59:43.313Z,7.60
2022-11-30T11:03:24.080Z,8.90
2022-11-30T11:06:49.854Z,8.00
2022-11-30T11:10:16.396Z,7.70
2022-11-30T11:13:40.791Z,7.90
2022-11-30T11:17:06.687Z,5.25
2022-11-30T11:20:34.417Z,7.07
2022-11-30T11:23:58.614Z,6.75
2022-11-30T11:27:26.836Z,8.00
2022-11-30T11:30:50.124Z,8.00
2022-11-30T11:34:26.121Z,11.60
2022-11-30T11:37:53.518Z,9.20
2022-11-30T11:41:22.494Z,5.20
2022-11-30T11:44:50.757Z,6.15
2022-11-30T11:48:29.605Z,6.88
2022-11-30T11:52:02.040Z,6.97
2022-11-30T11:55:26.389Z,9.80
2022-11-30T11:58:53.541Z,5.93
2022-11-30T12:02:28.894Z,7.20
2022-11-30T12:05:59.074Z,9.80
2022-11-30T12:09:26.373Z,8.35
2022-11-30T12:12:54.696Z,12.32
2022-11-30T12:16:38.777Z,5.70
2022-11-30T12:20:14.048Z,8.52
2022-11-30T12:23:54.803Z,8.23
2022-11-30T12:27:23.433Z,6.45
2022-11-30T12:31:06.584Z,5.57
2022-11-30T12:34:45.568Z,5.90
2022-11-30T12:38:18.978Z,15.90
2022-11-30T12:41:51.116Z,14.93
2022-11-30T12:45:20.334Z,13.13
2022-11-30T12:49:01.010Z,14.40
2022-11-30T12:52:37.193Z,15.70
2022-11-30T12:56:12.858Z,12.05
2022-11-30T12:59:46.050Z,15.10
2022-11-30T13:03:28.283Z,12.95
2022-11-30T13:06:56.918Z,13.32
2022-11-30T13:10:27.608Z,8.68
2022-11-30T13:13:53.424Z,15.15
2022-11-30T13:17:21.132Z,14.05
2022-11-30T13:20:50.579Z,12.52
2022-11-30T13:24:24.343Z,6.60
2022-11-30T13:27:58.043Z,16.98
2022-11-30T13:31:25.446Z,10.82
2022-11-30T13:34:48.733Z,8.68
2022-11-30T13:38:37.375Z,10.32
2022-11-30T13:42:34.547Z,10.73
2022-11-30T13:46:14.330Z,7.45
2022-11-30T13:49:38.233Z,10.32
2022-11-30T13:53:19.673Z,9.98
2022-11-30T13:56:48.747Z,11.38
2022-11-30T14:00:49.358Z,9.73
2022-11-30T14:04:45.967Z,8.95
2022-11-30T14:08:33.401Z,13.50
2022-11-30T14:11:56.490Z,12.90
2022-11-30T14:15:53.992Z,7.40
2022-11-30T14:19:17.326Z,9.30
2022-11-30T14:22:42.040Z,7.88
2022-11-30T14:26:11.184Z,11.57
2022-11-30T14:29:38.248Z,8.55
2022-11-30T14:33:05.435Z,8.65
2022-11-30T14:36:35.379Z,10.30
2022-11-30T14:40:03.694Z,10.18
2022-11-30T14:43:26.802Z,10.98
2022-11-30T14:46:52.655Z,12.75
2022-11-30T14:50:24.387Z,12.63
2022-11-30T14:53:54.020Z,7.95
2022-11-30T14:57:28.503Z,10.18
2022-11-30T15:00:53.812Z,11.20
2022-11-30T15:04:20.948Z,10.40
2022-11-30T15:07:45.206Z,8.23
2022-11-30T15:11:12.647Z,9.07
2022-11-30T15:14:37.125Z,12.15
2022-11-30T15:18:09.151Z,6.97
2022-11-30T15:21:33.528Z,10.48
2022-11-30T15:24:56.464Z,13.35
2022-11-30T15:28:23.352Z,10.70
2022-11-30T15:31:53.134Z,7.93
2022-11-30T15:35:22.680Z,8.48
2022-11-30T15:38:51.191Z,14.50
2022-11-30T15:42:21.551Z,13.00
2022-11-30T15:45:54.734Z,8.48
2022-11-30T15:49:24.637Z,8.38
2022-11-30T15:52:51.767Z,6.47
2022-11-30T15:56:24.246Z,10.43
2022-11-30T16:00:07.160Z,9.48
2022-11-30T16:03:30.468Z,11.32
2022-11-30T16:06:54.837Z,8.55
2022-11-30T16:10:21.226Z,14.02
2022-11-30T16:13:44.956Z,10.73
2022-11-30T16:17:09.209Z,11.90
2022-11-30T16:20:32.299Z,9.02
2022-11-30T16:23:56.563Z,7.35
2022-11-30T16:27:22.502Z,10.65
2022-11-30T16:30:46.972Z,14.10
2022-11-30T16:34:12.463Z,19.85
2022-11-30T16:37:35.335Z,8.40
2022-11-30T16:41:14.922Z,10.13
2022-11-30T16:44:37.892Z,9.20
2022-11-30T16:48:00.800Z,7.90
2022-11-30T16:51:27.144Z,12.15
2022-11-30T16:54:50.155Z,9.15
2022-11-30T16:58:14.381Z,9.32
2022-11-30T17:01:40.962Z,8.43
2022-11-30T17:05:04.029Z,22.05
2022-11-30T17:08:26.956Z,9.80
2022-11-30T17:11:51.326Z,11.38
2022-11-30T17:15:18.521Z,9.15
2022-11-30T17:18:41.918Z,6.97
2022-11-30T17:22:05.392Z,7.65
2022-11-30T17:25:28.720Z,11.95
2022-11-30T17:28:51.702Z,10.35
2022-11-30T17:32:15.917Z,8.88
2022-11-30T17:35:39.897Z,12.88
2022-11-30T17:39:05.763Z,10.30
2022-11-30T17:42:29.902Z,16.08
2022-11-30T17:45:53.012Z,9.85
2022-11-30T17:49:17.416Z,10.52
2022-11-30T17:52:40.362Z,17.48
2022-11-30T17:56:04.661Z,9.88
2022-11-30T17:59:27.670Z,11.20
2022-11-30T18:02:52.112Z,11.75
2022-11-30T18:06:16.900Z,10.10
2022-11-30T18:09:42.678Z,7.55
2022-11-30T18:13:06.066Z,11.88
2022-11-30T18:16:30.902Z,11.27
2022-11-30T18:19:54.504Z,12.00
2022-11-30T18:23:18.780Z,13.25
2022-11-30T18:26:41.784Z,12.27
2022-11-30T18:30:10.009Z,17.55
2022-11-30T18:33:33.682Z,14.30
2022-11-30T18:36:57.427Z,14.30
2022-11-30T18:40:21.880Z,12.57
2022-11-30T18:43:44.876Z,9.77
2022-11-30T18:47:08.355Z,14.07
2022-11-30T18:50:31.324Z,14.73
2022-11-30T18:53:57.641Z,12.80
2022-11-30T18:57:22.188Z,13.48
2022-11-30T19:00:45.264Z,11.45
2022-11-30T19:04:10.415Z,11.57
2022-11-30T19:07:35.332Z,11.15
2022-11-30T19:11:05.461Z,12.15
2022-11-30T19:14:30.113Z,14.00
2022-11-30T19:17:53.132Z,15.35
2022-11-30T19:21:18.474Z,13.90
2022-11-30T19:24:41.424Z,15.32
2022-11-30T19:28:04.652Z,10.75
2022-11-30T19:31:28.978Z,15.15
2022-11-30T19:34:52.538Z,18.38
2022-11-30T19:38:15.415Z,20.15
2022-11-30T19:41:38.343Z,14.65
2022-11-30T19:45:01.271Z,18.60
2022-11-30T19:48:25.546Z,19.80
2022-11-30T19:51:48.513Z,16.50
2022-11-30T19:55:11.545Z,15.90
2022-11-30T19:58:34.772Z,17.70
2022-11-30T20:01:57.690Z,15.88
2022-11-30T20:05:22.047Z,17.70
2022-11-30T20:08:45.126Z,16.02
2022-11-30T20:12:08.412Z,16.33
2022-11-30T20:15:31.389Z,17.00
2022-11-30T20:18:56.288Z,18.33
2022-11-30T20:22:20.761Z,15.70
2022-11-30T20:25:43.757Z,16.02
2022-11-30T20:29:08.587Z,17.95
2022-11-30T20:32:32.147Z,21.45
2022-11-30T20:35:55.175Z,12.18
2022-11-30T20:39:19.564Z,14.60
2022-11-30T20:42:42.829Z,18.33
2022-11-30T20:46:13.989Z,15.75
2022-11-30T20:49:37.310Z,13.02
2022-11-30T20:53:00.590Z,14.27
2022-11-30T20:56:25.161Z,14.07
2022-11-30T20:59:48.466Z,14.90
2022-11-30T21:03:11.489Z,15.25
2022-11-30T21:06:34.632Z,12.93
2022-11-30T21:09:58.461Z,14.52
2022-11-30T21:13:22.865Z,11.75
2022-11-30T21:16:45.877Z,11.70
2022-11-30T21:20:09.881Z,15.48
2022-11-30T21:23:33.268Z,9.35
2022-11-30T21:26:56.259Z,14.60
2022-11-30T21:30:20.724Z,12.00
2022-11-30T21:33:50.931Z,18.52
2022-11-30T21:37:15.253Z,16.48
2022-11-30T21:40:38.167Z,15.63
2022-11-30T21:44:01.099Z,21.30
2022-11-30T21:47:25.351Z,15.73
2022-11-30T21:50:48.234Z,20.80
2022-11-30T21:54:13.200Z,14.95
2022-11-30T21:57:36.085Z,16.52
2022-11-30T22:01:00.893Z,20.77
2022-11-30T22:04:25.262Z,18.15
2022-11-30T22:07:48.318Z,12.10
2022-11-30T22:11:12.880Z,20.38
2022-11-30T22:14:36.450Z,17.77
2022-11-30T22:17:59.361Z,15.90
2022-11-30T22:21:25.313Z,20.70
2022-11-30T22:24:48.876Z,14.52
2022-11-30T22:28:11.771Z,15.73
2022-11-30T22:31:36.681Z,14.52
2022-11-30T22:34:59.631Z,11.73
2022-11-30T22:38:23.871Z,13.25
2022-11-30T22:41:53.080Z,14.50
2022-11-30T22:45:18.459Z,18.85
2022-11-30T22:48:42.015Z,15.23
2022-11-30T22:52:05.020Z,14.15
2022-11-30T22:55:29.384Z,14.50
2022-11-30T22:58:54.581Z,19.48
2022-11-30T23:02:17.551Z,12.73
2022-11-30T23:05:40.448Z,21.85
2022-11-30T23:09:04.764Z,24.40
2022-11-30T23:12:57.452Z,27.08
2022-11-30T23:16:13.708Z,24.75
2022-11-30T23:19:36.648Z,29.05
2022-11-30T23:22:59.588Z,20.80
2022-11-30T23:26:24.336Z,19.45
2022-11-30T23:29:48.736Z,17.35
2022-11-30T23:33:11.771Z,22.98
2022-11-30T23:36:35.716Z,19.42
2022-11-30T23:39:58.698Z,23.65
2022-11-30T23:43:21.591Z,18.30
2022-11-30T23:46:46.179Z,18.33
2022-11-30T23:50:10.204Z,24.33
2022-11-30T23:53:33.512Z,16.63
2022-11-30T23:56:56.491Z,17.73
